In Rescue
 
Open Full Screen Window  High Contrast Mode
Wind Gusting 00 knots
12
March 01, 2024 12:25 PM PST
Weather Information
Wind Direction
  220 °
Wind Speed
  12 kt (14 mph)
Wind Gust
  00 kt (0 mph)
Altimeter
30.00 in
Visibility
10 SM
Temperature
13° C
55° F
Dewpoint
09° C
48° F
Humidity
77%
Sky Condition
Overcast @ 4,500 ft
Broken @ 3,800 ft
Few @ 2,300 ft
VFR

METAR KCVH 012025Z AUTO 22012KT 10SM FEW023 BKN038 OVC045 13/09 A3000 RMK A01

FAA Disclaimer: The data displayed is for advisory purposes only and is not to be used for flight planning or operations.